Time;durP1;ratioP1;P1;durP2;ratioP2;P2;SDS_P1;SDS_P2;PMS_P1;PMS_P2;Temp;Humidity;BMP_temperature;BMP_pressure;BME280_temperature;BME280_humidity;BME280_pressure;Samples;Min_cycle;Max_cycle;Signal;HPM_P1;HPM_P2
2022/04/11 00:00:39;;;;;;;5.32;2.75;;;3.10;99.90;;;;;;4950131;28;20457;-57
2022/04/11 00:03:05;;;;;;;7.93;2.90;;;3.10;99.90;;;;;;4933929;28;20092;-58
2022/04/11 00:05:31;;;;;;;5.30;2.80;;;3.10;99.90;;;;;;4948852;28;20079;-59
2022/04/11 00:07:57;;;;;;;4.55;2.70;;;3.00;99.90;;;;;;4950923;28;20086;-58
2022/04/11 00:10:23;;;;;;;4.68;2.67;;;3.00;99.90;;;;;;4939203;28;20541;-59
2022/04/11 00:12:48;;;;;;;5.43;2.80;;;3.00;99.90;;;;;;4953712;28;20067;-59
2022/04/11 00:15:14;;;;;;;5.28;3.10;;;2.90;99.90;;;;;;4945501;28;20047;-59
2022/04/11 00:17:40;;;;;;;6.75;3.17;;;2.90;99.90;;;;;;4933153;28;20055;-57
2022/04/11 00:20:06;;;;;;;6.50;2.50;;;2.90;99.90;;;;;;4910720;28;20047;-58
2022/04/11 00:22:36;;;;;;;4.78;2.72;;;2.90;99.90;;;;;;4932040;28;20772;-58
2022/04/11 00:25:03;;;;;;;5.78;3.00;;;2.80;99.90;;;;;;4952384;28;20043;-58
2022/04/11 00:27:29;;;;;;;4.18;2.65;;;2.80;99.90;;;;;;4932639;28;20046;-59
2022/04/11 00:29:55;;;;;;;5.60;2.60;;;2.80;99.90;;;;;;4963473;28;20054;-59
2022/04/11 00:32:21;;;;;;;3.70;2.63;;;2.70;99.90;;;;;;4934054;28;20059;-58
2022/04/11 00:34:47;;;;;;;4.45;2.40;;;2.70;99.90;;;;;;4947966;28;20479;-59
2022/04/11 00:37:13;;;;;;;4.05;2.55;;;2.60;99.90;;;;;;4950396;28;20101;-59
2022/04/11 00:39:39;;;;;;;6.88;2.70;;;2.60;99.90;;;;;;4947341;28;20098;-59
2022/04/11 00:42:14;;;;;;;3.83;2.33;;;2.60;99.90;;;;;;4939659;28;20424;-57
2022/04/11 00:44:41;;;;;;;3.85;2.30;;;2.60;99.90;;;;;;4932369;28;20154;-58
2022/04/11 00:47:07;;;;;;;6.85;3.03;;;2.50;99.90;;;;;;4938662;28;20523;-58
2022/04/11 00:49:32;;;;;;;5.03;2.60;;;2.60;99.90;;;;;;4948700;28;20454;-59
2022/04/11 00:51:59;;;;;;;6.47;2.53;;;2.50;99.90;;;;;;4952982;28;20106;-59
2022/04/11 00:54:30;;;;;;;6.38;2.42;;;2.40;99.90;;;;;;4951817;28;20058;-57
2022/04/11 00:56:57;;;;;;;4.43;2.63;;;2.50;99.90;;;;;;4939876;28;20401;-58
2022/04/11 00:59:24;;;;;;;5.78;2.65;;;2.40;99.90;;;;;;4953455;28;20053;-59
2022/04/11 01:01:50;;;;;;;5.18;2.60;;;2.40;99.90;;;;;;4972398;28;20047;-58
2022/04/11 01:04:26;;;;;;;6.28;2.90;;;2.40;99.90;;;;;;4953884;28;20512;-58
2022/04/11 01:06:55;;;;;;;6.32;2.70;;;2.30;99.90;;;;;;4944746;28;20043;-58
2022/04/11 01:09:24;;;;;;;6.03;2.90;;;2.30;99.90;;;;;;4953229;28;20043;-58
2022/04/11 01:11:51;;;;;;;5.93;2.60;;;2.30;99.90;;;;;;4941465;28;20058;-59
2022/04/11 01:14:17;;;;;;;4.15;2.72;;;2.20;99.90;;;;;;4952689;28;20058;-59
2022/04/11 01:16:48;;;;;;;3.72;2.60;;;2.20;99.90;;;;;;4951113;28;20050;-59
2022/04/11 01:19:14;;;;;;;4.72;3.00;;;2.20;99.90;;;;;;4952814;28;20098;-58
2022/04/11 01:21:40;;;;;;;7.88;3.30;;;2.20;99.90;;;;;;4951984;28;20094;-58
2022/04/11 01:24:06;;;;;;;5.30;2.78;;;2.20;99.90;;;;;;4948835;28;20051;-58
2022/04/11 01:26:33;;;;;;;4.47;2.75;;;2.20;99.90;;;;;;4903927;28;20050;-58
2022/04/11 01:28:59;;;;;;;4.60;2.72;;;2.10;99.90;;;;;;4941966;28;20047;-58
2022/04/11 01:31:25;;;;;;;6.15;2.80;;;2.10;99.90;;;;;;4950768;28;21067;-59
2022/04/11 01:33:51;;;;;;;4.13;2.55;;;2.10;99.90;;;;;;4949626;28;20130;-59
2022/04/11 01:36:18;;;;;;;6.28;2.47;;;2.10;99.90;;;;;;4950824;28;20824;-58
2022/04/11 01:38:44;;;;;;;6.90;2.58;;;2.10;99.90;;;;;;4950582;28;20137;-58
2022/04/11 01:41:09;;;;;;;6.10;2.47;;;2.10;99.90;;;;;;4952059;28;20043;-60
2022/04/11 01:43:35;;;;;;;5.60;2.90;;;2.00;99.90;;;;;;4950013;28;20043;-58
2022/04/11 01:46:01;;;;;;;4.25;2.75;;;2.00;99.90;;;;;;4936135;28;20055;-58
2022/04/11 01:48:27;;;;;;;4.07;2.50;;;2.00;99.90;;;;;;4937996;28;20051;-59
2022/04/11 01:50:53;;;;;;;5.88;2.97;;;2.00;99.90;;;;;;4922858;28;20109;-61
2022/04/11 01:53:20;;;;;;;3.15;2.42;;;1.90;99.90;;;;;;4964873;28;20055;-60
2022/04/11 01:55:46;;;;;;;3.85;2.70;;;1.90;99.90;;;;;;4965572;28;20047;-61
2022/04/11 01:58:14;;;;;;;5.25;2.90;;;1.90;99.90;;;;;;4930950;28;20135;-61
2022/04/11 02:00:40;;;;;;;5.18;2.58;;;1.90;99.90;;;;;;4932540;28;20044;-61
2022/04/11 02:03:08;;;;;;;3.85;2.70;;;1.90;99.90;;;;;;4952646;28;20155;-60
2022/04/11 02:05:34;;;;;;;6.30;3.03;;;1.90;99.90;;;;;;4953698;28;20057;-61
2022/04/11 02:08:00;;;;;;;5.93;2.95;;;1.80;99.90;;;;;;4968027;28;20049;-61
2022/04/11 02:10:27;;;;;;;4.53;2.60;;;1.80;99.90;;;;;;4951169;28;20494;-61
2022/04/11 02:12:54;;;;;;;5.18;2.88;;;1.80;99.90;;;;;;4965866;28;20064;-61
2022/04/11 02:15:20;;;;;;;7.22;2.97;;;1.80;99.90;;;;;;4947656;28;20063;-61
2022/04/11 02:17:46;;;;;;;3.95;2.20;;;1.70;99.90;;;;;;4934332;28;20047;-60
2022/04/11 02:20:13;;;;;;;5.70;2.67;;;1.70;99.90;;;;;;4939129;28;20504;-60
2022/04/11 02:22:43;;;;;;;5.65;2.40;;;1.70;99.90;;;;;;4935899;28;20156;-60
2022/04/11 02:25:09;;;;;;;5.22;2.65;;;1.70;99.90;;;;;;4934986;28;20501;-60
2022/04/11 02:27:34;;;;;;;5.03;2.17;;;1.70;99.90;;;;;;4934238;28;20050;-60
2022/04/11 02:30:00;;;;;;;8.50;2.60;;;1.70;99.90;;;;;;4909922;28;20842;-60
2022/04/11 02:32:26;;;;;;;3.72;2.58;;;1.80;99.90;;;;;;4947925;28;20051;-61
2022/04/11 02:34:52;;;;;;;5.70;2.60;;;1.60;99.90;;;;;;4934785;28;20050;-61
2022/04/11 02:37:17;;;;;;;5.15;2.50;;;1.60;99.90;;;;;;4951083;28;20051;-60
2022/04/11 02:39:43;;;;;;;5.85;2.58;;;1.60;99.90;;;;;;4949709;28;20112;-60
2022/04/11 02:42:09;;;;;;;3.75;2.50;;;1.50;99.90;;;;;;4945971;28;23612;-58
2022/04/11 02:44:35;;;;;;;6.78;3.35;;;1.50;99.90;;;;;;4932560;28;20046;-61
2022/04/11 02:47:01;;;;;;;7.15;2.53;;;1.50;99.90;;;;;;4933050;28;20058;-61
2022/04/11 02:49:27;;;;;;;4.35;2.50;;;1.50;99.90;;;;;;4963308;28;20051;-59
2022/04/11 02:51:53;;;;;;;7.95;3.00;;;1.50;99.90;;;;;;4967367;28;20050;-60
2022/04/11 02:54:18;;;;;;;4.95;2.55;;;1.50;99.90;;;;;;4950164;28;20051;-60
2022/04/11 02:56:44;;;;;;;6.38;2.70;;;1.50;99.90;;;;;;4950871;28;20058;-60
2022/04/11 02:59:10;;;;;;;4.80;2.83;;;1.40;99.90;;;;;;4967500;28;20047;-61
2022/04/11 03:01:36;;;;;;;12.32;3.20;;;1.40;99.90;;;;;;4950216;28;20078;-61
2022/04/11 03:04:02;;;;;;;3.78;2.45;;;1.40;99.90;;;;;;4955719;28;20051;-61
2022/04/11 03:06:27;;;;;;;4.95;2.50;;;1.40;99.90;;;;;;4948004;28;20051;-60
2022/04/11 03:08:53;;;;;;;5.22;2.65;;;1.40;99.90;;;;;;4948093;28;20062;-60
2022/04/11 03:11:19;;;;;;;7.55;3.28;;;1.40;99.90;;;;;;4963349;28;20105;-60
2022/04/11 03:13:47;;;;;;;4.47;3.03;;;1.30;99.90;;;;;;4950124;28;20829;-61
2022/04/11 03:16:13;;;;;;;6.05;2.95;;;1.40;99.90;;;;;;4945946;28;20050;-60
2022/04/11 03:18:40;;;;;;;5.07;2.30;;;1.30;99.90;;;;;;4949001;28;20075;-60
2022/04/11 03:21:06;;;;;;;4.60;2.72;;;1.30;99.90;;;;;;4933230;28;20496;-61
2022/04/11 03:23:31;;;;;;;5.40;2.90;;;1.30;99.90;;;;;;4947786;28;20046;-60
2022/04/11 03:25:57;;;;;;;4.28;2.60;;;1.30;99.90;;;;;;4945201;28;20488;-61
2022/04/11 03:28:23;;;;;;;5.10;2.80;;;1.30;99.90;;;;;;4939239;28;20654;-61
2022/04/11 03:30:49;;;;;;;4.15;2.83;;;1.30;99.90;;;;;;4949776;28;20051;-60
2022/04/11 03:33:14;;;;;;;5.05;3.20;;;1.30;99.90;;;;;;4951612;28;20054;-61
2022/04/11 03:35:40;;;;;;;3.58;2.58;;;1.30;99.90;;;;;;4963983;28;20859;-60
2022/04/11 03:38:06;;;;;;;7.68;3.03;;;1.40;99.90;;;;;;4950712;28;20049;-59
2022/04/11 03:40:32;;;;;;;4.07;2.95;;;1.40;99.90;;;;;;4945540;28;20788;-60
2022/04/11 03:42:58;;;;;;;5.60;2.70;;;1.40;99.90;;;;;;4940297;28;20051;-61
2022/04/11 03:45:24;;;;;;;4.40;2.72;;;1.40;99.90;;;;;;4948092;28;20058;-60
2022/04/11 03:47:49;;;;;;;6.40;2.50;;;1.40;99.90;;;;;;4948527;28;20497;-59
2022/04/11 03:50:15;;;;;;;8.00;2.78;;;1.50;99.90;;;;;;4948538;28;20098;-61
2022/04/11 03:52:41;;;;;;;4.65;3.00;;;1.50;99.90;;;;;;4949671;28;20074;-60
2022/04/11 03:55:07;;;;;;;9.23;3.67;;;1.50;99.90;;;;;;4948394;28;20522;-61
2022/04/11 03:57:33;;;;;;;5.88;3.03;;;1.60;99.90;;;;;;4939499;28;20039;-60
2022/04/11 03:59:59;;;;;;;7.32;3.35;;;1.60;99.90;;;;;;4928158;28;20105;-60
2022/04/11 04:02:25;;;;;;;9.43;3.15;;;1.60;99.90;;;;;;4949034;28;20047;-61
2022/04/11 04:04:51;;;;;;;4.53;2.78;;;1.70;99.90;;;;;;4950258;28;20829;-60
2022/04/11 04:07:16;;;;;;;4.47;2.90;;;1.70;99.90;;;;;;4948923;28;20094;-60
2022/04/11 04:09:42;;;;;;;3.83;2.60;;;1.80;99.90;;;;;;4964395;28;20116;-61
2022/04/11 04:12:09;;;;;;;7.43;3.50;;;1.70;99.90;;;;;;4947712;28;20066;-60
2022/04/11 04:14:38;;;;;;;7.03;3.28;;;1.80;99.90;;;;;;4941251;28;20050;-60
2022/04/11 04:17:04;;;;;;;6.18;3.20;;;1.80;99.90;;;;;;4953900;28;20134;-61
2022/04/11 04:19:29;;;;;;;6.85;3.28;;;1.90;99.90;;;;;;4947391;28;20047;-61
2022/04/11 04:21:55;;;;;;;4.38;2.88;;;1.90;99.90;;;;;;4964355;28;20046;-59
2022/04/11 04:24:22;;;;;;;5.45;3.35;;;1.90;99.90;;;;;;4942024;28;20087;-61
2022/04/11 04:26:51;;;;;;;5.18;3.30;;;1.90;99.90;;;;;;4947936;28;20874;-60
2022/04/11 04:29:17;;;;;;;4.72;3.13;;;2.00;99.90;;;;;;4934670;28;20050;-60
2022/04/11 04:31:43;;;;;;;8.02;3.90;;;2.00;99.90;;;;;;4932878;28;20089;-61
2022/04/11 04:34:09;;;;;;;7.00;3.42;;;2.10;99.90;;;;;;4966742;28;20428;-60
2022/04/11 04:36:35;;;;;;;7.88;3.50;;;2.10;99.90;;;;;;4932543;28;20043;-61
2022/04/11 04:39:02;;;;;;;5.45;3.08;;;2.10;99.90;;;;;;4946590;28;20045;-60
2022/04/11 04:41:29;;;;;;;6.18;3.35;;;2.10;99.90;;;;;;4949092;28;20044;-61
2022/04/11 04:43:54;;;;;;;6.10;3.80;;;2.20;99.90;;;;;;4963869;28;20079;-60
2022/04/11 04:46:20;;;;;;;6.78;3.60;;;2.20;99.90;;;;;;4948887;28;20466;-60
2022/04/11 04:48:46;;;;;;;4.65;3.60;;;2.20;99.90;;;;;;4950443;28;21094;-61
2022/04/11 04:51:12;;;;;;;5.68;3.50;;;2.20;99.90;;;;;;4949629;28;20083;-60
2022/04/11 04:53:38;;;;;;;7.55;3.58;;;2.30;99.90;;;;;;4963751;28;20058;-60
2022/04/11 04:56:04;;;;;;;6.15;3.70;;;2.30;99.90;;;;;;4948480;28;20500;-61
2022/04/11 04:58:30;;;;;;;5.70;3.30;;;2.30;99.90;;;;;;4948515;28;20047;-61
2022/04/11 05:00:56;;;;;;;10.02;3.90;;;2.30;99.90;;;;;;4937843;28;20043;-61
2022/04/11 05:03:21;;;;;;;5.07;3.30;;;2.40;99.90;;;;;;4963085;28;20047;-61
2022/04/11 05:05:47;;;;;;;8.40;3.63;;;2.40;99.90;;;;;;4947690;28;20047;-60
2022/04/11 05:08:13;;;;;;;7.45;3.60;;;2.40;99.90;;;;;;4963144;28;20075;-61
2022/04/11 05:10:39;;;;;;;8.10;3.60;;;2.40;99.90;;;;;;4946327;28;20134;-61
2022/04/11 05:13:04;;;;;;;7.30;3.65;;;2.50;99.90;;;;;;4936144;28;20051;-60
2022/04/11 05:15:30;;;;;;;8.10;3.88;;;2.50;99.90;;;;;;4962272;28;20113;-61
2022/04/11 05:17:56;;;;;;;7.57;3.95;;;2.60;99.90;;;;;;4933979;28;20548;-61
2022/04/11 05:20:22;;;;;;;7.55;3.85;;;2.60;99.90;;;;;;4946913;28;20055;-61
2022/04/11 05:22:48;;;;;;;6.05;4.03;;;2.70;99.90;;;;;;4932479;28;20055;-58
2022/04/11 05:25:13;;;;;;;8.43;4.18;;;2.70;99.90;;;;;;4935101;28;20047;-61
2022/04/11 05:27:39;;;;;;;8.93;4.32;;;2.70;99.90;;;;;;4919789;28;20051;-60
2022/04/11 05:30:06;;;;;;;6.32;4.20;;;2.80;99.90;;;;;;4947314;28;20085;-61
2022/04/11 05:32:33;;;;;;;7.60;4.53;;;2.90;99.90;;;;;;4953626;28;20969;-61
2022/04/11 05:34:59;;;;;;;7.45;4.32;;;3.00;99.90;;;;;;4950323;28;20050;-60
2022/04/11 05:37:25;;;;;;;6.70;4.50;;;3.00;99.90;;;;;;4949551;28;20082;-61
2022/04/11 05:39:51;;;;;;;9.70;4.55;;;3.00;99.90;;;;;;4946485;28;20161;-61
2022/04/11 05:42:17;;;;;;;4.90;3.80;;;3.10;99.90;;;;;;4945371;28;20097;-61
2022/04/11 05:44:43;;;;;;;7.00;4.00;;;3.20;99.90;;;;;;4930186;28;20059;-60
2022/04/11 05:47:09;;;;;;;6.90;4.38;;;3.20;99.90;;;;;;4931262;28;20337;-60
2022/04/11 05:49:34;;;;;;;9.32;4.40;;;3.20;99.90;;;;;;4932006;28;20078;-60
2022/04/11 05:52:00;;;;;;;10.07;4.25;;;3.30;99.90;;;;;;4954217;28;20050;-61
2022/04/11 05:54:26;;;;;;;5.85;3.85;;;3.30;99.90;;;;;;4969151;28;20083;-61
2022/04/11 05:56:52;;;;;;;6.55;4.28;;;3.40;99.90;;;;;;4949537;28;20504;-61
2022/04/11 05:59:18;;;;;;;11.52;4.53;;;3.40;99.90;;;;;;4947244;28;20087;-60
2022/04/11 06:01:44;;;;;;;4.97;4.05;;;3.50;99.90;;;;;;4949116;28;20657;-60
2022/04/11 06:04:10;;;;;;;6.82;4.10;;;3.50;99.90;;;;;;4946026;28;20050;-61
2022/04/11 06:06:36;;;;;;;8.02;4.40;;;3.50;99.90;;;;;;4933705;28;20043;-60
2022/04/11 06:09:03;;;;;;;7.63;4.65;;;3.50;99.90;;;;;;4948009;28;20413;-60
2022/04/11 06:11:31;;;;;;;8.40;4.20;;;3.60;99.90;;;;;;4944055;28;20161;-61
2022/04/11 06:13:56;;;;;;;7.18;4.45;;;3.60;99.90;;;;;;4962604;28;20491;-60
2022/04/11 06:16:22;;;;;;;6.85;4.60;;;3.70;99.90;;;;;;4928080;28;20051;-59
2022/04/11 06:18:48;;;;;;;7.65;4.70;;;3.70;99.90;;;;;;4949603;28;21052;-62
2022/04/11 06:21:14;;;;;;;10.20;4.88;;;3.70;99.90;;;;;;4931050;28;20050;-58
2022/04/11 06:23:40;;;;;;;6.50;4.47;;;3.80;99.90;;;;;;4965405;28;20516;-60
2022/04/11 06:26:06;;;;;;;7.63;4.45;;;3.90;99.90;;;;;;4931128;28;20058;-60
2022/04/11 06:28:31;;;;;;;7.72;4.57;;;3.90;99.90;;;;;;4948670;28;20046;-61
2022/04/11 06:30:57;;;;;;;9.38;5.03;;;3.90;99.90;;;;;;4948588;28;20587;-61
2022/04/11 06:33:23;;;;;;;8.57;4.82;;;4.00;99.90;;;;;;4952081;28;20055;-60
2022/04/11 06:35:49;;;;;;;11.20;4.75;;;4.00;99.90;;;;;;4931789;28;20047;-60
2022/04/11 06:38:14;;;;;;;7.63;4.88;;;4.10;99.90;;;;;;4945682;28;20436;-59
2022/04/11 06:40:40;;;;;;;12.40;4.03;;;4.20;99.90;;;;;;4936989;28;20126;-60
2022/04/11 06:43:06;;;;;;;7.20;4.38;;;4.30;99.90;;;;;;4937161;28;20046;-58
2022/04/11 06:45:32;;;;;;;8.15;4.05;;;4.30;99.90;;;;;;4952191;28;20147;-61
2022/04/11 06:47:58;;;;;;;8.75;4.07;;;4.40;99.90;;;;;;4948765;28;20446;-60
2022/04/11 06:50:23;;;;;;;8.05;4.00;;;4.50;99.90;;;;;;4950417;28;20078;-60
2022/04/11 06:52:49;;;;;;;8.18;3.55;;;4.60;99.90;;;;;;4948474;28;20058;-61
2022/04/11 06:55:15;;;;;;;11.10;4.18;;;4.70;99.90;;;;;;4953744;28;20133;-60
2022/04/11 06:57:41;;;;;;;6.20;4.03;;;4.80;99.90;;;;;;4953963;28;20137;-61
2022/04/11 07:00:07;;;;;;;9.18;3.45;;;4.80;99.90;;;;;;4950906;28;20369;-61
2022/04/11 07:02:33;;;;;;;6.88;3.50;;;4.90;99.90;;;;;;4948932;28;20054;-59
2022/04/11 07:04:58;;;;;;;8.10;3.85;;;5.00;99.90;;;;;;4959563;28;20043;-59
2022/04/11 07:07:24;;;;;;;7.05;3.42;;;5.00;99.90;;;;;;4950639;28;20054;-62
2022/04/11 07:09:50;;;;;;;8.70;3.65;;;5.10;99.90;;;;;;4962912;28;20057;-60
2022/04/11 07:12:16;;;;;;;5.22;3.05;;;5.20;99.90;;;;;;4960157;28;20071;-60
2022/04/11 07:14:41;;;;;;;8.05;3.30;;;5.30;99.90;;;;;;4952263;28;20069;-60
2022/04/11 07:17:07;;;;;;;6.18;2.78;;;5.40;99.90;;;;;;4951206;28;20129;-58
2022/04/11 07:19:33;;;;;;;7.10;2.67;;;5.50;99.90;;;;;;4949441;28;20054;-62
2022/04/11 07:21:59;;;;;;;10.02;2.60;;;5.60;99.90;;;;;;4951909;28;20985;-61
2022/04/11 07:24:25;;;;;;;8.32;2.60;;;5.60;99.90;;;;;;4951466;28;20101;-61
2022/04/11 07:26:51;;;;;;;6.05;2.60;;;5.70;99.90;;;;;;4950030;28;20079;-61
2022/04/11 07:29:17;;;;;;;6.63;2.75;;;5.80;99.90;;;;;;4948705;28;20046;-61
2022/04/11 07:31:43;;;;;;;9.77;3.40;;;5.90;99.90;;;;;;4949351;28;20054;-60
2022/04/11 07:34:08;;;;;;;8.60;3.13;;;6.00;99.90;;;;;;4952355;28;20046;-58
2022/04/11 07:36:34;;;;;;;9.73;3.10;;;6.00;99.90;;;;;;4947702;28;20062;-61
2022/04/11 07:39:00;;;;;;;5.68;2.90;;;6.10;99.90;;;;;;4948620;28;20043;-57
2022/04/11 07:41:26;;;;;;;7.03;3.03;;;6.20;99.90;;;;;;4929855;28;20043;-61
2022/04/11 07:43:54;;;;;;;7.30;2.67;;;6.30;99.90;;;;;;4949518;28;20051;-61
2022/04/11 07:46:20;;;;;;;9.23;2.75;;;6.30;99.90;;;;;;4951367;28;20100;-61
2022/04/11 07:48:46;;;;;;;7.70;2.90;;;6.40;99.90;;;;;;4950835;28;20046;-60
2022/04/11 07:51:12;;;;;;;6.68;2.97;;;6.50;99.90;;;;;;4948813;28;20066;-60
2022/04/11 07:53:38;;;;;;;8.07;3.00;;;6.60;99.90;;;;;;4950245;28;20066;-61
2022/04/11 07:56:04;;;;;;;8.30;2.83;;;6.60;99.90;;;;;;4949332;28;20626;-59
2022/04/11 07:58:30;;;;;;;7.38;2.50;;;6.70;99.90;;;;;;4948088;28;20102;-61
2022/04/11 08:00:55;;;;;;;5.60;2.58;;;6.80;99.90;;;;;;4946374;28;20370;-62
2022/04/11 08:03:21;;;;;;;9.55;3.10;;;6.90;99.90;;;;;;4952220;28;20055;-62
2022/04/11 08:05:47;;;;;;;10.98;3.03;;;7.00;99.90;;;;;;4950049;28;21099;-61
2022/04/11 08:08:14;;;;;;;8.25;3.08;;;7.20;99.90;;;;;;4950485;28;20097;-61
2022/04/11 08:10:40;;;;;;;7.57;2.70;;;7.20;99.80;;;;;;4946852;28;20142;-60
2022/04/11 08:13:06;;;;;;;6.45;2.92;;;7.30;99.40;;;;;;4945062;28;20452;-61
2022/04/11 08:15:32;;;;;;;6.95;3.03;;;7.40;99.20;;;;;;4950598;28;20055;-62
2022/04/11 08:17:59;;;;;;;8.98;3.13;;;7.50;98.80;;;;;;4960241;28;20058;-59
2022/04/11 08:20:27;;;;;;;10.70;2.50;;;7.60;98.90;;;;;;4945955;28;20133;-61
2022/04/11 08:22:53;;;;;;;7.00;2.22;;;7.80;98.30;;;;;;4950177;28;20137;-61
2022/04/11 08:25:19;;;;;;;6.57;2.42;;;7.90;97.70;;;;;;4946810;28;20129;-62
2022/04/11 08:27:45;;;;;;;8.70;2.22;;;8.00;97.50;;;;;;4945805;28;20058;-60
2022/04/11 08:30:13;;;;;;;5.38;2.88;;;8.20;97.20;;;;;;4947414;28;20054;-60
2022/04/11 08:32:46;;;;;;;6.07;2.70;;;8.40;96.80;;;;;;4919625;28;20085;-62
2022/04/11 08:35:12;;;;;;;8.63;2.70;;;8.60;96.10;;;;;;4948214;28;20588;-62
2022/04/11 08:37:40;;;;;;;6.47;2.80;;;8.80;95.90;;;;;;4936460;28;20122;-60
2022/04/11 08:40:07;;;;;;;5.43;2.55;;;9.00;95.70;;;;;;4947249;28;20047;-61
2022/04/11 08:42:33;;;;;;;6.68;3.03;;;9.20;95.10;;;;;;4930349;28;20527;-63
2022/04/11 08:45:00;;;;;;;7.35;2.50;;;9.30;94.90;;;;;;4945848;28;20042;-62
2022/04/11 08:47:26;;;;;;;4.95;2.10;;;9.40;94.40;;;;;;4948556;28;20046;-60
2022/04/11 08:49:53;;;;;;;7.93;2.65;;;9.50;94.00;;;;;;4949394;28;20055;-62
2022/04/11 08:52:20;;;;;;;11.00;2.35;;;9.50;93.60;;;;;;4934866;28;20397;-60
2022/04/11 08:54:46;;;;;;;6.03;2.08;;;9.50;93.80;;;;;;4949656;28;20087;-63
2022/04/11 08:57:12;;;;;;;3.97;2.17;;;9.60;93.50;;;;;;4948633;28;20141;-62
2022/04/11 08:59:38;;;;;;;3.33;1.70;;;9.70;92.80;;;;;;4946207;28;20047;-61
2022/04/11 09:02:10;;;;;;;4.40;1.52;;;9.80;92.80;;;;;;4948973;28;20125;-62
2022/04/11 09:04:54;;;;;;;5.78;1.70;;;9.80;92.20;;;;;;4964196;28;20055;-61
2022/04/11 09:07:21;;;;;;;8.40;1.90;;;9.90;92.00;;;;;;4948951;28;20055;-62
2022/04/11 09:09:47;;;;;;;6.25;1.90;;;10.00;92.00;;;;;;4949295;28;20472;-63
2022/04/11 09:12:14;;;;;;;6.53;2.00;;;10.10;92.40;;;;;;4952607;28;20058;-63
2022/04/11 09:14:41;;;;;;;5.25;1.95;;;10.20;91.90;;;;;;4951713;28;21334;-62
2022/04/11 09:17:09;;;;;;;4.15;1.80;;;10.30;90.70;;;;;;4950031;28;20723;-63
2022/04/11 09:19:36;;;;;;;6.60;1.70;;;10.30;90.80;;;;;;4950007;28;21413;-60
2022/04/11 09:22:02;;;;;;;9.27;1.90;;;10.50;90.90;;;;;;4951079;28;20058;-63
2022/04/11 09:24:30;;;;;;;5.38;1.73;;;10.60;89.40;;;;;;4932771;28;20042;-64
2022/04/11 09:26:57;;;;;;;6.25;2.00;;;10.70;87.50;;;;;;4941502;28;20062;-62
2022/04/11 09:29:24;;;;;;;4.85;1.90;;;10.90;87.20;;;;;;4951101;28;20050;-63
2022/04/11 09:31:50;;;;;;;3.45;1.88;;;11.00;85.80;;;;;;4949911;28;20130;-58
2022/04/11 09:34:27;;;;;;;6.15;2.05;;;11.10;85.80;;;;;;4964749;28;20042;-61
2022/04/11 09:36:55;;;;;;;3.83;1.60;;;11.20;86.00;;;;;;4952210;28;20173;-63
2022/04/11 09:39:26;;;;;;;5.15;1.90;;;11.40;86.00;;;;;;4950789;28;20045;-64
2022/04/11 09:41:52;;;;;;;7.38;1.85;;;11.50;84.50;;;;;;4950749;28;20050;-63
2022/04/11 09:44:26;;;;;;;7.32;1.90;;;11.60;84.40;;;;;;4948528;28;20054;-63
2022/04/11 09:46:55;;;;;;;6.70;2.10;;;11.70;81.10;;;;;;4954131;28;20057;-62
2022/04/11 09:49:22;;;;;;;5.82;2.00;;;11.80;81.50;;;;;;4949924;28;20051;-63
2022/04/11 09:52:13;;;;;;;4.10;1.90;;;11.90;81.10;;;;;;4949646;28;20089;-61
2022/04/11 09:54:47;;;;;;;3.28;1.83;;;12.10;81.40;;;;;;4950360;28;20042;-62
2022/04/11 09:57:14;;;;;;;5.28;1.80;;;12.20;80.90;;;;;;4937299;28;20572;-63
2022/04/11 09:59:41;;;;;;;5.57;1.92;;;12.40;79.60;;;;;;4948518;28;20130;-61
2022/04/11 10:02:10;;;;;;;5.97;1.75;;;12.50;79.10;;;;;;4951610;28;20710;-64
2022/04/11 10:04:36;;;;;;;5.18;2.10;;;12.60;80.90;;;;;;4934664;28;20876;-63
2022/04/11 10:07:03;;;;;;;4.68;1.85;;;12.70;77.10;;;;;;4965949;28;20679;-61
2022/04/11 10:09:30;;;;;;;6.38;2.45;;;12.80;78.80;;;;;;4933546;28;20135;-61
2022/04/11 10:11:56;;;;;;;3.75;1.90;;;12.90;75.70;;;;;;4947439;28;20055;-63
2022/04/11 10:14:26;;;;;;;5.63;2.33;;;12.90;73.40;;;;;;4951583;28;20681;-64
2022/04/11 10:16:55;;;;;;;3.08;1.60;;;13.00;73.70;;;;;;4934975;28;20059;-58
2022/04/11 10:19:26;;;;;;;4.55;1.75;;;13.00;70.80;;;;;;4951148;28;20038;-60
2022/04/11 10:21:55;;;;;;;4.20;2.00;;;13.10;70.10;;;;;;4963644;28;20093;-64
2022/04/11 10:24:46;;;;;;;4.20;1.83;;;13.20;69.40;;;;;;4934792;28;20612;-61
2022/04/11 10:27:25;;;;;;;5.43;2.25;;;13.20;67.90;;;;;;4949372;28;20108;-58
2022/04/11 10:29:55;;;;;;;4.75;2.13;;;13.20;66.90;;;;;;4946315;28;20132;-59
2022/04/11 10:32:23;;;;;;;5.93;2.08;;;13.30;67.20;;;;;;4950446;28;20053;-62
2022/04/11 10:34:56;;;;;;;6.93;2.38;;;13.30;66.40;;;;;;4950654;28;20113;-64
2022/04/11 10:37:27;;;;;;;4.78;2.08;;;13.40;65.20;;;;;;4949816;28;20058;-61
2022/04/11 10:40:13;;;;;;;6.00;2.40;;;13.40;65.40;;;;;;4949650;28;20056;-64
2022/04/11 10:42:59;;;;;;;3.85;2.20;;;13.50;66.80;;;;;;4951001;28;20054;-59
2022/04/11 10:45:29;;;;;;;4.82;2.20;;;13.60;64.40;;;;;;4951505;28;20069;-61
2022/04/11 10:47:55;;;;;;;7.97;2.03;;;13.70;63.70;;;;;;4948648;28;20057;-61
2022/04/11 10:50:23;;;;;;;3.30;2.10;;;13.80;64.60;;;;;;4947401;28;20611;-62
2022/04/11 10:53:06;;;;;;;3.60;1.98;;;13.70;63.40;;;;;;4949882;28;20081;-64
2022/04/11 10:55:31;;;;;;;11.00;2.55;;;13.90;63.80;;;;;;4947918;28;20047;-64
2022/04/11 10:58:00;;;;;;;4.25;2.20;;;14.00;64.30;;;;;;4949670;28;20058;-64
2022/04/11 11:00:34;;;;;;;6.20;2.08;;;14.20;65.50;;;;;;4949378;28;20137;-61
2022/04/11 11:03:13;;;;;;;5.30;2.65;;;14.40;64.30;;;;;;4949232;28;20047;-62
2022/04/11 11:05:43;;;;;;;6.93;2.60;;;14.60;63.40;;;;;;4948701;28;20058;-61
2022/04/11 11:08:11;;;;;;;7.60;2.42;;;14.70;64.30;;;;;;4931459;28;20138;-62
2022/04/11 11:10:52;;;;;;;3.13;1.98;;;14.90;64.20;;;;;;4948929;28;20365;-65
2022/04/11 11:13:42;;;;;;;4.55;2.03;;;15.00;63.70;;;;;;4964543;28;20393;-64
2022/04/11 11:16:07;;;;;;;7.35;2.40;;;15.10;63.50;;;;;;4931058;28;20086;-61
2022/04/11 11:18:51;;;;;;;6.93;2.60;;;15.20;63.30;;;;;;4949230;28;20050;-64
2022/04/11 11:21:33;;;;;;;6.20;2.45;;;15.30;61.10;;;;;;4948384;28;20046;-65
2022/04/11 11:24:04;;;;;;;5.13;2.20;;;15.30;62.30;;;;;;4948237;28;20043;-64
2022/04/11 11:26:46;;;;;;;6.05;2.35;;;15.40;60.80;;;;;;4952740;28;20827;-64
2022/04/11 11:29:44;;;;;;;4.60;2.53;;;15.40;61.50;;;;;;4933259;28;20107;-62
2022/04/11 11:32:12;;;;;;;5.25;2.50;;;15.50;62.60;;;;;;4950780;28;20403;-64
2022/04/11 11:34:40;;;;;;;4.30;2.38;;;15.70;62.70;;;;;;4950166;28;20055;-65
2022/04/11 11:37:13;;;;;;;5.38;2.35;;;15.80;63.50;;;;;;4950371;28;20517;-65
2022/04/11 11:39:41;;;;;;;6.15;2.50;;;16.00;62.60;;;;;;4930169;28;20045;-61
2022/04/11 11:42:12;;;;;;;4.78;2.40;;;16.10;60.90;;;;;;4948773;28;20057;-64
2022/04/11 11:44:43;;;;;;;5.72;2.38;;;16.20;61.40;;;;;;4929271;28;20469;-61
2022/04/11 11:47:09;;;;;;;7.05;2.35;;;16.30;59.40;;;;;;4950436;28;20054;-65
2022/04/11 11:49:47;;;;;;;6.57;2.80;;;16.30;59.30;;;;;;4944116;28;20499;-65
2022/04/11 11:52:17;;;;;;;3.58;2.17;;;16.20;57.60;;;;;;4950862;28;20195;-65
2022/04/11 11:54:45;;;;;;;5.53;2.47;;;16.20;58.40;;;;;;4949050;28;20079;-64
2022/04/11 11:57:25;;;;;;;8.98;2.40;;;16.30;58.60;;;;;;4931534;28;20055;-63
2022/04/11 11:59:54;;;;;;;4.65;2.60;;;16.40;58.00;;;;;;4946967;28;20129;-65
2022/04/11 12:05:20;;;;;;;5.53;2.60;;;16.60;59.10;;;;;;4950922;28;20042;-62
2022/04/11 12:08:02;;;;;;;7.75;2.40;;;16.80;59.50;;;;;;4948195;28;20480;-65
2022/04/11 12:10:28;;;;;;;4.50;2.20;;;17.00;59.60;;;;;;4948433;28;20051;-65
2022/04/11 12:12:54;;;;;;;6.20;2.50;;;17.20;59.30;;;;;;4948590;28;20109;-65
2022/04/11 12:15:21;;;;;;;6.10;3.17;;;17.40;58.90;;;;;;4945973;28;20141;-63
2022/04/11 12:17:49;;;;;;;7.22;3.05;;;17.60;58.10;;;;;;4948173;28;20047;-65
2022/04/11 12:20:20;;;;;;;5.43;2.55;;;17.70;57.10;;;;;;4946352;28;20078;-65
2022/04/11 12:23:01;;;;;;;7.65;2.70;;;17.70;57.10;;;;;;4947350;28;20038;-65
2022/04/11 12:25:35;;;;;;;3.75;2.53;;;17.80;56.90;;;;;;4964173;28;20043;-64
2022/04/11 12:28:21;;;;;;;7.20;2.90;;;17.90;57.30;;;;;;4948446;28;20050;-62
2022/04/11 12:30:48;;;;;;;3.80;2.53;;;18.00;57.10;;;;;;4948206;28;20047;-65
2022/04/11 12:33:36;;;;;;;5.07;2.65;;;18.10;55.60;;;;;;4952830;28;20055;-66
2022/04/11 12:36:22;;;;;;;4.25;2.72;;;18.10;55.60;;;;;;4929025;28;20140;-65
2022/04/11 12:39:12;;;;;;;7.47;3.03;;;18.00;55.60;;;;;;4945433;28;20047;-62
2022/04/11 12:41:47;;;;;;;6.13;2.85;;;18.10;55.30;;;;;;4948593;28;20591;-65
2022/04/11 12:44:35;;;;;;;9.20;3.05;;;18.00;54.80;;;;;;4954341;28;20082;-62
2022/04/11 12:47:01;;;;;;;5.78;2.60;;;18.20;54.70;;;;;;4950561;28;20062;-66
2022/04/11 12:49:56;;;;;;;4.70;2.78;;;18.20;53.50;;;;;;4950428;28;20047;-63
2022/04/11 12:52:27;;;;;;;5.55;2.88;;;18.10;52.70;;;;;;4951477;28;20485;-65
2022/04/11 12:55:11;;;;;;;7.05;2.75;;;18.20;54.50;;;;;;4947309;28;20051;-64
2022/04/11 12:57:37;;;;;;;5.72;3.08;;;18.40;53.40;;;;;;4952064;28;20089;-62
2022/04/11 13:00:14;;;;;;;8.18;2.70;;;18.40;53.70;;;;;;4965428;28;20054;-65